Time;durP1;ratioP1;P1;durP2;ratioP2;P2;SDS_P1;SDS_P2;PMS_P1;PMS_P2;Temp;Humidity;BMP_temperature;BMP_pressure;BME280_temperature;BME280_humidity;BME280_pressure;Samples;Min_cycle;Max_cycle;Signal;HPM_P1;HPM_P2
2021/07/15 00:02:14;;;;;;;24.33;18.30;;;;;;;18.16;90.60;99019.53;4990966;28;20038;-64
2021/07/15 00:04:40;;;;;;;20.05;16.13;;;;;;;18.17;90.94;99026.53;4989749;28;20034;-64
2021/07/15 00:07:06;;;;;;;17.95;14.40;;;;;;;18.20;90.95;99031.59;4991285;28;20683;-64
2021/07/15 00:09:31;;;;;;;29.33;20.35;;;;;;;18.20;90.26;99038.75;4990772;28;20034;-64
2021/07/15 00:11:57;;;;;;;16.95;14.40;;;;;;;18.12;90.65;99033.31;4980744;28;20034;-64
2021/07/15 00:14:23;;;;;;;18.95;14.98;;;;;;;18.12;90.58;99042.13;4971511;28;20398;-65
2021/07/15 00:16:54;;;;;;;17.52;15.50;;;;;;;18.11;90.50;99040.44;4971571;28;20118;-65
2021/07/15 00:19:29;;;;;;;21.75;15.40;;;;;;;18.12;90.21;99043.97;4972065;28;20031;-64
2021/07/15 00:21:57;;;;;;;26.63;17.17;;;;;;;18.07;89.85;99039.06;4971641;28;20119;-64
2021/07/15 00:24:23;;;;;;;21.40;16.40;;;;;;;18.02;90.22;99051.97;4972414;28;20030;-64
2021/07/15 00:26:49;;;;;;;28.60;18.52;;;;;;;18.00;89.96;99051.28;4970726;28;20054;-65
2021/07/15 00:29:14;;;;;;;39.55;20.30;;;;;;;17.98;90.42;99053.22;4971157;28;20458;-65
2021/07/15 00:31:40;;;;;;;18.65;15.30;;;;;;;17.96;90.51;99040.03;4971447;28;20031;-65
2021/07/15 00:34:06;;;;;;;41.58;21.70;;;;;;;17.94;90.51;99047.34;4971301;28;20037;-64
2021/07/15 00:36:31;;;;;;;25.48;16.65;;;;;;;17.88;90.64;99055.06;4971202;28;20426;-66
2021/07/15 00:38:57;;;;;;;17.38;13.23;;;;;;;17.87;91.05;99045.34;4972519;28;20030;-64
2021/07/15 00:41:22;;;;;;;31.33;18.55;;;;;;;17.88;90.96;99055.06;4972800;28;20444;-65
2021/07/15 00:43:49;;;;;;;23.25;15.98;;;;;;;17.88;90.93;99058.56;4974092;28;20415;-65
2021/07/15 00:46:14;;;;;;;15.38;12.75;;;;;;;17.85;90.80;99060.69;4972854;28;20498;-64
2021/07/15 00:48:40;;;;;;;16.90;13.90;;;;;;;17.84;90.70;99061.66;4953254;28;20046;-65
2021/07/15 00:51:06;;;;;;;18.17;13.18;;;;;;;17.83;90.93;99062.66;4971358;28;20038;-65
2021/07/15 00:53:33;;;;;;;23.55;15.23;;;;;;;17.83;90.87;99059.97;4971139;28;20039;-65
2021/07/15 00:55:58;;;;;;;22.15;15.10;;;;;;;17.83;90.48;99066.16;4971137;28;20042;-63
2021/07/15 00:58:24;;;;;;;17.40;13.63;;;;;;;17.80;90.62;99064.59;4970457;28;20088;-64
2021/07/15 01:00:50;;;;;;;18.30;12.48;;;;;;;17.79;90.72;99065.56;4946814;28;20054;-65
2021/07/15 01:03:19;;;;;;;20.08;13.57;;;;;;;17.79;90.72;99064.69;4970472;28;20038;-65
2021/07/15 01:05:49;;;;;;;18.17;12.75;;;;;;;17.76;90.83;99062.31;4970273;28;20043;-64
2021/07/15 01:08:15;;;;;;;17.30;13.63;;;;;;;17.73;91.09;99063.44;4970437;28;20027;-66
2021/07/15 01:10:46;;;;;;;19.75;13.52;;;;;;;17.73;90.86;99058.09;4970612;28;20049;-64
2021/07/15 01:13:19;;;;;;;14.77;11.70;;;;;;;17.76;90.88;99059.66;4969804;28;20587;-65
2021/07/15 01:16:03;;;;;;;17.50;12.55;;;;;;;17.82;90.69;99059.13;4970188;28;20102;-64
2021/07/15 01:19:11;;;;;;;21.02;14.45;;;;;;;17.83;90.57;99067.97;4970134;28;20042;-64
2021/07/15 01:21:55;;;;;;;18.15;12.88;;;;;;;17.83;90.37;99068.81;4923987;28;20127;-65
2021/07/15 01:24:30;;;;;;;24.40;15.68;;;;;;;17.79;90.58;99067.34;4970665;28;20062;-65
2021/07/15 01:27:15;;;;;;;12.68;10.85;;;;;;;17.80;90.77;99063.75;4972520;28;20511;-65
2021/07/15 01:29:58;;;;;;;27.83;17.02;;;;;;;17.79;90.61;99070.91;4970467;28;20030;-65
2021/07/15 01:32:52;;;;;;;37.47;17.40;;;;;;;17.74;90.72;99066.94;4970951;28;20046;-65
2021/07/15 01:35:20;;;;;;;21.45;14.00;;;;;;;17.69;91.06;99072.69;4970225;28;20035;-65
2021/07/15 01:37:50;;;;;;;17.52;14.05;;;;;;;17.65;91.18;99073.13;4973688;28;20117;-64
2021/07/15 01:40:23;;;;;;;12.93;10.00;;;;;;;17.59;91.36;99074.50;4973811;28;20118;-65
2021/07/15 01:42:54;;;;;;;19.65;12.13;;;;;;;17.56;91.75;99074.78;4973523;28;20128;-64
2021/07/15 01:45:20;;;;;;;12.90;9.68;;;;;;;17.51;91.90;99077.00;4974037;28;20038;-64
2021/07/15 01:47:45;;;;;;;13.18;8.65;;;;;;;17.49;92.03;99078.97;4973570;28;20072;-64
2021/07/15 01:50:11;;;;;;;14.90;10.23;;;;;;;17.46;92.26;99084.56;4974064;28;20152;-65
2021/07/15 01:52:37;;;;;;;11.43;8.13;;;;;;;17.48;92.38;99087.97;4956269;28;20406;-65
2021/07/15 01:55:04;;;;;;;25.67;12.43;;;;;;;17.48;92.21;99079.97;4973331;28;20023;-64
2021/07/15 01:57:30;;;;;;;19.95;10.35;;;;;;;17.43;91.92;99075.03;4973701;28;20488;-64
2021/07/15 01:59:57;;;;;;;34.08;13.85;;;;;;;17.45;92.05;99075.75;4973564;28;20023;-65
2021/07/15 02:02:25;;;;;;;20.85;10.15;;;;;;;17.43;91.84;99069.72;4973374;28;20039;-65
2021/07/15 02:04:54;;;;;;;24.50;10.82;;;;;;;17.39;92.00;99066.47;4973715;28;20035;-64
2021/07/15 02:07:22;;;;;;;16.15;9.40;;;;;;;17.43;92.48;99066.22;4975758;28;20039;-65
2021/07/15 02:09:50;;;;;;;14.88;6.47;;;;;;;17.44;92.41;99067.88;4973510;28;20033;-65
2021/07/15 02:12:19;;;;;;;10.63;7.20;;;;;;;17.45;92.04;99077.53;4973319;28;20034;-65
2021/07/15 02:14:47;;;;;;;7.45;5.57;;;;;;;17.46;92.46;99082.75;4973178;28;20045;-65
2021/07/15 02:17:14;;;;;;;6.68;5.57;;;;;;;17.48;92.08;99083.47;4972737;28;20719;-67
2021/07/15 02:19:42;;;;;;;7.63;5.50;;;;;;;17.48;91.79;99086.13;4972706;28;20043;-67
2021/07/15 02:22:08;;;;;;;8.52;6.05;;;;;;;17.49;91.89;99084.31;4972776;28;20062;-67
2021/07/15 02:24:34;;;;;;;7.75;4.97;;;;;;;17.50;91.81;99077.97;4973242;28;20026;-67
2021/07/15 02:27:03;;;;;;;17.40;8.68;;;;;;;17.49;91.06;99079.81;4954969;28;20130;-67
2021/07/15 02:29:29;;;;;;;8.85;5.90;;;;;;;17.50;91.72;99080.63;4972895;28;20026;-67
2021/07/15 02:32:06;;;;;;;7.35;5.10;;;;;;;17.50;91.67;99078.84;4972425;28;20030;-67
2021/07/15 02:34:47;;;;;;;7.85;5.35;;;;;;;17.49;91.68;99081.63;4972750;28;20137;-67
2021/07/15 02:37:15;;;;;;;19.27;9.27;;;;;;;17.48;91.07;99086.13;4972177;28;20089;-65
2021/07/15 02:39:41;;;;;;;8.68;5.60;;;;;;;17.49;91.42;99090.47;4955317;28;20073;-67
2021/07/15 02:42:06;;;;;;;6.30;5.03;;;;;;;17.49;91.50;99087.81;4972294;28;20456;-66
2021/07/15 02:44:32;;;;;;;19.55;8.63;;;;;;;17.49;91.24;99086.97;4972123;28;20039;-65
2021/07/15 02:46:57;;;;;;;13.65;8.45;;;;;;;17.49;91.52;99081.63;4972111;28;20121;-66
2021/07/15 02:49:23;;;;;;;32.35;12.23;;;;;;;17.47;91.37;99086.25;4972617;28;20041;-66
2021/07/15 02:51:48;;;;;;;21.52;10.75;;;;;;;17.47;91.20;99076.44;4972659;28;20058;-67
2021/07/15 02:54:15;;;;;;;12.30;8.98;;;;;;;17.48;91.59;99087.97;4972082;28;20039;-66
2021/07/15 02:56:51;;;;;;;19.67;10.20;;;;;;;17.48;91.50;99085.28;4954779;28;20399;-66
2021/07/15 02:59:29;;;;;;;23.90;12.52;;;;;;;17.44;90.95;99089.19;4972555;28;20038;-66
2021/07/15 03:02:07;;;;;;;19.05;11.23;;;;;;;17.37;91.52;99088.88;4972177;28;20027;-66
2021/07/15 03:04:49;;;;;;;11.18;8.18;;;;;;;17.36;91.96;99090.72;4971830;28;20512;-66
2021/07/15 03:07:18;;;;;;;17.05;8.00;;;;;;;17.37;91.85;99096.88;4954298;28;20443;-66
2021/07/15 03:09:48;;;;;;;41.75;13.55;;;;;;;17.37;91.57;99092.41;4972310;28;20143;-66
2021/07/15 03:12:20;;;;;;;36.45;12.52;;;;;;;17.37;91.46;99091.56;4972267;28;20034;-66
2021/07/15 03:14:48;;;;;;;20.17;11.07;;;;;;;17.34;91.45;99095.34;4971986;28;20046;-66
2021/07/15 03:17:18;;;;;;;21.38;10.52;;;;;;;17.36;91.90;99095.22;4971955;28;20491;-67
2021/07/15 03:19:48;;;;;;;16.23;8.20;;;;;;;17.36;91.45;99090.72;4971494;28;20090;-67
2021/07/15 03:22:14;;;;;;;13.85;7.90;;;;;;;17.37;91.50;99081.72;4974547;28;20046;-67
2021/07/15 03:24:45;;;;;;;14.15;7.05;;;;;;;17.42;91.86;99083.16;4971990;28;20038;-67
2021/07/15 03:27:11;;;;;;;20.10;9.98;;;;;;;17.41;91.35;99087.66;4971849;28;20101;-67
2021/07/15 03:29:38;;;;;;;11.88;6.80;;;;;;;17.41;91.26;99094.81;4972086;28;20034;-67
2021/07/15 03:32:06;;;;;;;17.80;7.70;;;;;;;17.38;91.44;99094.09;4971773;28;20069;-67
2021/07/15 03:34:34;;;;;;;19.55;8.80;;;;;;;17.37;91.30;99102.22;4971583;28;20128;-65
2021/07/15 03:37:01;;;;;;;22.80;9.25;;;;;;;17.36;91.94;99095.22;4971724;28;20121;-65
2021/07/15 03:39:28;;;;;;;10.80;6.32;;;;;;;17.36;91.51;99088.06;4972027;28;20042;-66
2021/07/15 03:41:54;;;;;;;12.05;5.80;;;;;;;17.35;91.57;99096.16;4971923;28;20402;-64
2021/07/15 03:44:20;;;;;;;29.10;9.07;;;;;;;17.33;91.70;99093.66;4972321;28;20042;-66
2021/07/15 03:46:47;;;;;;;16.50;7.93;;;;;;;17.33;91.89;99096.31;4972107;28;20090;-64
2021/07/15 03:49:17;;;;;;;9.13;5.45;;;;;;;17.33;91.68;99104.31;4971699;28;20143;-65
2021/07/15 03:51:44;;;;;;;18.98;7.18;;;;;;;17.33;91.70;99106.16;4971990;28;20035;-65
2021/07/15 03:54:10;;;;;;;15.07;6.43;;;;;;;17.31;91.99;99106.28;4971169;28;20038;-65
2021/07/15 03:56:37;;;;;;;11.00;6.75;;;;;;;17.34;92.14;99108.66;4970654;28;20031;-65
2021/07/15 03:59:04;;;;;;;7.55;4.90;;;;;;;17.35;92.03;99109.50;4971249;28;20118;-67
2021/07/15 04:01:33;;;;;;;17.08;7.57;;;;;;;17.32;91.17;99112.44;4971004;28;20500;-66
2021/07/15 04:04:03;;;;;;;17.40;7.25;;;;;;;17.34;91.75;99113.97;4973477;28;20147;-67
2021/07/15 04:06:31;;;;;;;6.75;4.63;;;;;;;17.37;92.10;99112.88;4971026;28;20134;-67
2021/07/15 04:09:00;;;;;;;30.00;14.43;;;;;;;17.41;91.26;99110.78;4971203;28;20442;-66
2021/07/15 04:11:27;;;;;;;8.50;6.70;;;;;;;17.43;91.82;99122.16;4971274;28;20558;-66
2021/07/15 04:13:53;;;;;;;20.75;8.73;;;;;;;17.43;91.22;99119.50;4971535;28;20065;-66
2021/07/15 04:16:24;;;;;;;12.38;7.18;;;;;;;17.43;91.31;99112.34;4970743;28;20023;-66
2021/07/15 04:18:53;;;;;;;10.45;6.03;;;;;;;17.48;91.67;99118.09;4971273;28;20118;-66
2021/07/15 04:21:19;;;;;;;11.18;6.35;;;;;;;17.50;91.13;99121.47;4971281;28;20046;-66
2021/07/15 04:23:47;;;;;;;7.18;5.15;;;;;;;17.54;91.36;99127.38;4971289;28;20034;-66
2021/07/15 04:26:13;;;;;;;7.32;5.20;;;;;;;17.56;91.23;99125.41;4970999;28;20046;-66
2021/07/15 04:28:40;;;;;;;7.85;4.85;;;;;;;17.57;91.13;99125.28;4971104;28;20058;-65
2021/07/15 04:31:40;;;;;;;6.07;4.88;;;;;;;17.62;91.21;99122.19;4971202;28;20039;-63
2021/07/15 04:34:06;;;;;;;10.30;6.55;;;;;;;17.60;90.32;99134.84;4970626;28;20473;-65
2021/07/15 04:36:32;;;;;;;10.32;6.60;;;;;;;17.60;90.31;99145.50;4970665;28;20166;-63
2021/07/15 04:39:00;;;;;;;7.72;4.80;;;;;;;17.58;90.66;99136.78;4970608;28;20031;-64
2021/07/15 04:41:26;;;;;;;15.23;6.95;;;;;;;17.60;90.50;99140.16;4971070;28;20193;-65
2021/07/15 04:43:52;;;;;;;12.75;6.93;;;;;;;17.62;90.79;99154.19;4971094;28;20045;-65
2021/07/15 04:46:19;;;;;;;9.32;5.57;;;;;;;17.63;90.72;99150.56;4970628;28;20499;-65
2021/07/15 04:48:46;;;;;;;7.82;5.20;;;;;;;17.65;91.07;99153.09;4971165;28;20065;-65
2021/07/15 04:51:15;;;;;;;6.47;4.65;;;;;;;17.67;90.89;99153.78;4973372;28;20035;-67
2021/07/15 04:53:42;;;;;;;7.63;5.18;;;;;;;17.70;91.00;99158.84;4972445;28;20312;-63
2021/07/15 04:56:08;;;;;;;5.25;3.85;;;;;;;17.71;90.55;99152.53;4973678;28;20070;-64
2021/07/15 04:58:33;;;;;;;5.93;4.50;;;;;;;17.71;90.75;99156.03;4970775;28;20132;-64
2021/07/15 05:01:00;;;;;;;6.30;4.80;;;;;;;17.71;90.68;99153.38;4971519;28;20039;-65
2021/07/15 05:03:33;;;;;;;7.03;4.90;;;;;;;17.72;90.73;99160.41;4970802;28;20472;-64
2021/07/15 05:06:00;;;;;;;8.40;5.53;;;;;;;17.73;90.41;99161.25;4971041;28;20436;-65
2021/07/15 05:08:26;;;;;;;6.88;4.45;;;;;;;17.70;90.08;99164.19;4974217;28;20038;-65
2021/07/15 05:10:52;;;;;;;13.80;6.47;;;;;;;17.66;90.88;99165.44;4975054;28;20046;-64
2021/07/15 05:13:18;;;;;;;12.55;5.63;;;;;;;17.66;90.78;99160.94;4974479;28;20035;-67
2021/07/15 05:15:46;;;;;;;7.63;5.13;;;;;;;17.65;91.10;99161.94;4974066;28;20399;-67
2021/07/15 05:18:11;;;;;;;14.00;7.00;;;;;;;17.67;90.83;99165.31;4974023;28;20043;-66
2021/07/15 05:20:37;;;;;;;11.25;5.55;;;;;;;17.64;90.82;99165.56;4974333;28;20035;-67
2021/07/15 05:23:02;;;;;;;4.88;3.85;;;;;;;17.67;90.97;99167.97;4976936;28;20038;-66
2021/07/15 05:25:27;;;;;;;6.18;4.47;;;;;;;17.63;90.79;99169.22;4974389;28;20042;-66
2021/07/15 05:27:52;;;;;;;8.95;5.65;;;;;;;17.63;90.85;99168.38;4974673;28;20034;-66
2021/07/15 05:30:18;;;;;;;11.95;7.70;;;;;;;17.63;91.14;99161.22;4974410;28;20113;-67
2021/07/15 05:32:44;;;;;;;8.25;6.55;;;;;;;17.65;91.07;99151.25;4973938;28;20118;-66
2021/07/15 05:35:09;;;;;;;22.08;10.95;;;;;;;17.68;90.78;99150.97;4973165;28;20039;-66
2021/07/15 05:37:36;;;;;;;12.15;8.65;;;;;;;17.69;90.76;99143.81;4973971;28;20076;-64
2021/07/15 05:40:04;;;;;;;17.13;9.77;;;;;;;17.73;90.89;99148.75;4974107;28;20054;-65
2021/07/15 05:42:29;;;;;;;16.73;10.45;;;;;;;17.75;90.82;99148.63;4973763;28;20031;-66
2021/07/15 05:44:55;;;;;;;8.57;6.72;;;;;;;17.81;91.14;99164.94;4974562;28;20037;-65
2021/07/15 05:47:20;;;;;;;7.03;6.05;;;;;;;17.87;91.32;99162.69;4973975;28;20034;-66
2021/07/15 05:49:46;;;;;;;19.42;11.35;;;;;;;17.90;90.22;99159.78;4973810;28;20039;-65
2021/07/15 05:52:11;;;;;;;21.10;11.98;;;;;;;17.89;90.38;99160.72;4974124;28;20037;-65
2021/07/15 05:54:37;;;;;;;9.43;6.60;;;;;;;17.88;90.56;99165.22;4974795;28;20035;-64
2021/07/15 05:57:05;;;;;;;16.05;9.73;;;;;;;17.87;89.82;99165.34;4973892;28;20051;-65
2021/07/15 05:59:30;;;;;;;7.25;6.28;;;;;;;17.80;90.47;99175.75;4988891;28;20054;-64
2021/07/15 06:01:56;;;;;;;7.22;6.03;;;;;;;17.89;90.58;99174.06;4992417;28;20153;-67
2021/07/15 06:04:21;;;;;;;6.60;5.05;;;;;;;17.99;90.60;99178.47;4990885;28;20057;-72
2021/07/15 06:06:46;;;;;;;6.90;5.85;;;;;;;18.03;89.43;99184.34;4992005;28;20179;-64
2021/07/15 06:09:11;;;;;;;4.80;4.30;;;;;;;18.05;89.39;99185.06;4990693;28;20410;-64
2021/07/15 06:11:37;;;;;;;10.68;8.02;;;;;;;18.03;88.86;99184.34;4992355;28;20038;-67
2021/07/15 06:14:03;;;;;;;11.40;8.88;;;;;;;18.01;88.96;99187.16;4991921;28;20458;-66
2021/07/15 06:16:28;;;;;;;20.08;11.40;;;;;;;18.02;89.10;99193.34;4974747;28;20505;-66
2021/07/15 06:18:53;;;;;;;14.32;10.13;;;;;;;18.02;88.78;99188.00;4991938;28;20121;-64
2021/07/15 06:21:19;;;;;;;13.63;10.80;;;;;;;18.01;88.67;99189.81;4992275;28;20410;-66
2021/07/15 06:23:45;;;;;;;16.58;12.45;;;;;;;17.92;89.22;99192.47;4992621;28;20398;-66
2021/07/15 06:26:11;;;;;;;15.85;11.43;;;;;;;17.88;89.26;99191.91;4992191;28;20114;-66
2021/07/15 06:28:36;;;;;;;15.82;11.57;;;;;;;17.90;89.46;99194.44;4991861;28;20038;-66
2021/07/15 06:31:02;;;;;;;13.35;10.05;;;;;;;17.97;89.20;99198.25;4991853;28;20054;-66
2021/07/15 06:33:28;;;;;;;12.38;10.07;;;;;;;18.01;89.55;99196.97;4992171;28;20317;-66
2021/07/15 06:35:53;;;;;;;17.52;12.15;;;;;;;18.08;89.12;99197.28;4992815;28;20042;-65
2021/07/15 06:38:19;;;;;;;10.73;8.85;;;;;;;18.16;88.96;99200.97;4978275;28;20116;-66
2021/07/15 06:41:09;;;;;;;13.73;10.45;;;;;;;18.22;88.79;99213.72;4982390;28;20035;-65
2021/07/15 06:43:35;;;;;;;9.02;7.32;;;;;;;18.20;88.18;99215.69;4991618;28;20065;-66
2021/07/15 06:46:01;;;;;;;16.30;10.20;;;;;;;18.30;88.24;99212.19;5006227;28;20617;-72
2021/07/15 06:48:27;;;;;;;16.75;10.50;;;;;;;18.35;87.82;99215.28;5005895;28;20050;-70
2021/07/15 06:50:53;;;;;;;17.30;10.85;;;;;;;18.33;87.49;99215.41;5006669;28;20045;-70
2021/07/15 06:53:19;;;;;;;13.88;10.23;;;;;;;18.33;87.87;99220.75;4996719;28;20038;-71
2021/07/15 06:55:44;;;;;;;21.02;11.63;;;;;;;18.34;87.87;99211.78;4985600;28;20035;-71
2021/07/15 06:58:10;;;;;;;8.07;7.25;;;;;;;18.35;88.70;99213.44;4984687;28;20042;-73
2021/07/15 07:00:36;;;;;;;18.90;11.90;;;;;;;18.35;88.06;99217.94;4986280;28;20042;-72
2021/07/15 07:03:02;;;;;;;24.17;14.43;;;;;;;18.28;88.62;99228.31;4986105;28;20041;-72
2021/07/15 07:05:27;;;;;;;18.67;13.27;;;;;;;18.27;89.08;99225.81;4985372;28;20113;-72
2021/07/15 07:07:53;;;;;;;20.40;14.98;;;;;;;18.28;89.33;99228.31;4985545;28;20117;-71
2021/07/15 07:10:19;;;;;;;13.63;11.60;;;;;;;18.27;89.14;99231.16;4986051;28;20031;-72
2021/07/15 07:12:45;;;;;;;24.10;16.65;;;;;;;18.28;89.51;99235.50;4985825;28;20030;-72
2021/07/15 07:15:13;;;;;;;20.13;14.55;;;;;;;18.25;89.23;99241.97;4986353;28;20026;-72
2021/07/15 07:17:39;;;;;;;29.77;17.75;;;;;;;18.20;89.35;99242.38;4986266;28;20037;-72
2021/07/15 07:20:06;;;;;;;18.77;14.20;;;;;;;18.21;89.93;99240.53;4985646;28;20042;-72
2021/07/15 07:22:31;;;;;;;16.17;13.07;;;;;;;18.14;89.89;99250.06;4983571;28;20031;-72
2021/07/15 07:24:57;;;;;;;21.98;15.95;;;;;;;18.12;90.30;99244.03;4985715;28;20517;-74
2021/07/15 07:27:22;;;;;;;20.73;14.88;;;;;;;18.13;90.38;99248.38;4980208;28;20043;-74
2021/07/15 07:29:48;;;;;;;15.93;12.77;;;;;;;18.13;90.75;99251.91;4966423;28;20042;-72
2021/07/15 07:32:13;;;;;;;8.68;7.68;;;;;;;18.14;91.03;99247.41;4975993;28;20073;-72
2021/07/15 07:34:39;;;;;;;13.13;8.23;;;;;;;18.14;90.39;99261.59;5004982;28;20062;-71
2021/07/15 07:37:04;;;;;;;5.72;5.05;;;;;;;18.15;90.88;99265.94;5004707;28;20617;-73
2021/07/15 07:39:29;;;;;;;15.30;13.10;;;;;;;18.17;90.95;99263.16;5005180;28;20034;-72
2021/07/15 07:41:55;;;;;;;9.82;8.30;;;;;;;18.22;90.69;99266.25;5005671;28;20044;-70
2021/07/15 07:44:20;;;;;;;13.43;9.18;;;;;;;18.25;90.79;99265.97;5003965;28;20125;-71
2021/07/15 07:46:46;;;;;;;7.22;5.70;;;;;;;18.28;90.57;99268.34;4995141;28;20046;-72
2021/07/15 07:49:11;;;;;;;6.43;5.53;;;;;;;18.31;90.86;99267.25;4967961;28;20042;-72
2021/07/15 07:51:36;;;;;;;5.28;4.70;;;;;;;18.31;90.64;99273.44;4984602;28;20042;-72
2021/07/15 07:54:02;;;;;;;7.05;6.18;;;;;;;18.33;90.69;99270.63;4967666;28;20068;-73
2021/07/15 07:56:28;;;;;;;6.63;5.90;;;;;;;18.34;90.33;99272.31;4985728;28;20045;-72
2021/07/15 07:58:54;;;;;;;7.00;5.90;;;;;;;18.36;90.33;99273.88;4985969;28;20139;-72
2021/07/15 08:01:19;;;;;;;6.85;6.05;;;;;;;18.34;90.38;99269.66;4955784;28;20034;-71
2021/07/15 08:03:45;;;;;;;7.43;6.15;;;;;;;18.31;90.38;99275.25;4975252;28;20049;-72
2021/07/15 08:06:11;;;;;;;6.00;4.85;;;;;;;18.33;90.30;99282.13;4974003;28;20050;-72
2021/07/15 08:08:38;;;;;;;6.72;6.03;;;;;;;18.29;90.49;99278.06;4970153;28;20038;-73
2021/07/15 08:11:04;;;;;;;6.80;6.10;;;;;;;18.31;90.77;99289.47;4948898;28;20035;-73
2021/07/15 08:13:29;;;;;;;7.07;5.57;;;;;;;18.33;90.86;99275.94;4966287;28;20041;-73
2021/07/15 08:15:55;;;;;;;8.93;7.43;;;;;;;18.33;90.71;99284.78;4964209;28;20034;-74
2021/07/15 08:18:20;;;;;;;7.47;6.78;;;;;;;18.36;90.79;99286.34;4985101;28;20084;-74
2021/07/15 08:20:46;;;;;;;8.98;8.07;;;;;;;18.39;90.51;99283.44;4985810;28;20038;-74
2021/07/15 08:23:12;;;;;;;6.90;6.13;;;;;;;18.33;89.98;99289.31;4985032;28;20034;-72
2021/07/15 08:25:38;;;;;;;6.78;6.07;;;;;;;18.31;90.08;99278.78;4981961;28;20185;-74
2021/07/15 08:28:03;;;;;;;6.57;5.20;;;;;;;18.31;89.81;99299.25;4978662;28;20560;-73
2021/07/15 08:30:28;;;;;;;5.43;4.50;;;;;;;18.26;89.27;99298.81;4985066;28;20093;-72
2021/07/15 08:32:54;;;;;;;5.88;5.28;;;;;;;18.28;89.93;99294.22;4995564;28;20505;-71
2021/07/15 08:35:19;;;;;;;5.47;4.05;;;;;;;18.34;89.84;99293.66;4987575;28;20087;-72
2021/07/15 08:37:45;;;;;;;6.57;4.70;;;;;;;18.36;89.71;99303.22;4989043;28;20034;-73
2021/07/15 08:40:11;;;;;;;5.07;4.20;;;;;;;18.39;89.52;99294.09;5005454;28;20046;-73
2021/07/15 08:42:38;;;;;;;7.57;5.65;;;;;;;18.42;89.66;99291.16;5007283;28;20034;-73
2021/07/15 08:45:07;;;;;;;9.57;4.40;;;;;;;18.47;89.84;99302.25;5008767;28;20691;-74
2021/07/15 08:47:38;;;;;;;6.90;4.65;;;;;;;18.63;89.68;99288.34;5008618;28;20052;-73
2021/07/15 08:50:05;;;;;;;6.30;4.53;;;;;;;18.81;88.40;99291.22;5007335;28;20498;-75
2021/07/15 08:52:33;;;;;;;5.05;4.00;;;;;;;18.88;87.53;99287.84;4986858;28;20056;-74
2021/07/15 08:55:05;;;;;;;8.27;4.45;;;;;;;18.88;86.67;99297.69;4986980;28;20047;-73
2021/07/15 08:57:30;;;;;;;5.60;4.03;;;;;;;18.91;85.97;99302.75;5003862;28;20509;-73
2021/07/15 08:59:56;;;;;;;7.80;3.97;;;;;;;19.02;86.08;99301.75;5004744;28;20065;-73
2021/07/15 09:02:23;;;;;;;3.78;2.78;;;;;;;19.14;86.44;99302.44;4986145;28;20038;-74
2021/07/15 09:04:50;;;;;;;8.10;3.72;;;;;;;19.17;85.68;99307.50;5004017;28;20041;-74
2021/07/15 09:07:16;;;;;;;5.78;4.00;;;;;;;19.18;85.04;99303.88;5003371;28;20086;-74
2021/07/15 09:09:45;;;;;;;10.93;5.93;;;;;;;19.19;85.60;99309.06;5004826;28;20124;-74
2021/07/15 09:12:13;;;;;;;8.00;4.18;;;;;;;19.21;86.01;99303.56;4977523;28;20066;-74
2021/07/15 09:14:50;;;;;;;5.80;4.43;;;;;;;19.28;86.03;99312.72;4965321;28;20118;-72
2021/07/15 09:17:25;;;;;;;4.90;3.40;;;;;;;19.29;85.73;99307.19;4964725;28;20608;-73
2021/07/15 09:19:51;;;;;;;;;;;;;;;19.32;84.73;99306.09;4970566;28;20550;-73
2021/07/15 09:22:16;;;;;;;5.70;3.87;;;;;;;19.35;85.20;99310.31;4964931;28;19960;-73
2021/07/15 09:24:44;;;;;;;5.78;4.07;;;;;;;19.36;85.20;99310.16;4965387;28;20805;-74
2021/07/15 09:27:11;;;;;;;5.45;3.85;;;;;;;19.39;85.65;99307.19;4967444;28;20609;-72
2021/07/15 09:29:37;;;;;;;4.70;3.53;;;;;;;19.44;85.67;99318.31;4947493;28;20145;-73
2021/07/15 09:32:03;;;;;;;7.78;5.80;;;;;;;19.48;85.89;99322.38;4971816;28;20786;-73
2021/07/15 09:34:31;;;;;;;10.32;7.22;;;;;;;19.51;85.66;99326.59;4976252;28;20053;-73
2021/07/15 09:36:57;;;;;;;5.80;4.50;;;;;;;19.50;85.66;99328.44;4985982;28;20042;-73
2021/07/15 09:39:28;;;;;;;6.00;5.28;;;;;;;19.48;85.31;99334.91;4985645;28;20039;-73
2021/07/15 09:42:17;;;;;;;8.80;7.03;;;;;;;19.49;85.44;99334.78;4984371;28;20046;-73
2021/07/15 09:44:46;;;;;;;11.20;8.35;;;;;;;19.45;85.25;99333.38;4983962;28;20046;-73
2021/07/15 09:47:30;;;;;;;8.23;7.18;;;;;;;19.42;85.52;99335.47;4983722;28;20120;-71
2021/07/15 09:49:56;;;;;;;8.90;7.68;;;;;;;19.35;86.13;99337.88;4984719;28;20034;-73
2021/07/15 09:52:22;;;;;;;8.18;7.35;;;;;;;19.35;86.45;99337.88;4983756;28;20046;-73
2021/07/15 09:54:48;;;;;;;13.27;10.65;;;;;;;19.34;86.31;99346.88;4969178;28;20475;-71
2021/07/15 09:57:29;;;;;;;15.32;10.55;;;;;;;19.31;86.75;99341.81;4987149;28;20446;-72
2021/07/15 09:59:58;;;;;;;11.10;9.98;;;;;;;19.27;87.02;99340.41;4988085;28;20498;-72
2021/07/15 10:02:31;;;;;;;10.70;9.38;;;;;;;19.25;87.28;99342.41;4981345;28;20100;-71
2021/07/15 10:04:56;;;;;;;12.80;11.55;;;;;;;19.24;87.53;99352.22;4963982;28;20065;-73
2021/07/15 10:07:25;;;;;;;11.10;9.82;;;;;;;19.14;87.03;99355.91;4986294;28;20498;-72
2021/07/15 10:10:18;;;;;;;12.10;8.20;;;;;;;19.12;88.30;99344.50;4987490;28;20139;-73
2021/07/15 10:12:43;;;;;;;12.43;10.45;;;;;;;19.16;88.00;99356.59;4963247;28;20074;-72
2021/07/15 10:15:14;;;;;;;11.38;10.20;;;;;;;19.19;88.23;99345.63;4989883;28;20042;-74
2021/07/15 10:17:41;;;;;;;9.70;8.70;;;;;;;19.22;88.19;99358.69;4969931;28;20046;-74
2021/07/15 10:20:20;;;;;;;10.02;8.82;;;;;;;19.24;87.65;99359.41;4987359;28;20057;-71
2021/07/15 10:22:54;;;;;;;9.15;8.25;;;;;;;19.23;87.01;99363.06;4988754;28;20042;-73
2021/07/15 10:25:19;;;;;;;10.68;8.27;;;;;;;19.14;87.79;99364.75;4986812;28;20038;-71
2021/07/15 10:27:46;;;;;;;7.95;6.45;;;;;;;19.19;87.77;99365.16;4952239;28;20035;-73
2021/07/15 10:30:14;;;;;;;10.07;9.02;;;;;;;19.23;87.60;99374.59;4969584;28;20054;-73
2021/07/15 10:32:41;;;;;;;9.20;7.25;;;;;;;19.26;87.75;99374.31;4961165;28;20514;-73
2021/07/15 10:35:09;;;;;;;7.15;6.20;;;;;;;19.29;87.75;99365.16;4951243;28;20045;-73
2021/07/15 10:37:42;;;;;;;6.47;5.53;;;;;;;19.27;86.60;99375.16;4974529;28;20130;-73
2021/07/15 10:40:13;;;;;;;9.90;8.00;;;;;;;19.25;86.66;99366.47;4986341;28;20093;-74
2021/07/15 10:42:39;;;;;;;7.57;6.00;;;;;;;19.28;86.87;99369.69;4952928;28;20034;-73
2021/07/15 10:45:07;;;;;;;8.45;7.47;;;;;;;19.26;86.21;99370.81;4987305;28;20510;-73
2021/07/15 10:47:34;;;;;;;6.97;6.30;;;;;;;19.22;86.30;99370.25;4986856;28;20107;-72
2021/07/15 10:50:00;;;;;;;8.27;7.13;;;;;;;19.23;86.40;99377.28;4987017;28;20046;-73
2021/07/15 10:52:27;;;;;;;7.28;6.53;;;;;;;19.27;86.76;99383.16;4968822;28;20093;-73
2021/07/15 10:54:54;;;;;;;12.95;7.95;;;;;;;19.29;86.67;99376.69;4985836;28;20042;-72
2021/07/15 10:57:24;;;;;;;7.30;6.60;;;;;;;19.34;86.76;99381.63;4986150;28;20058;-72
2021/07/15 10:59:50;;;;;;;8.02;6.40;;;;;;;19.40;86.63;99385.59;4986270;28;20128;-73
2021/07/15 11:02:24;;;;;;;7.53;6.38;;;;;;;19.43;86.27;99383.44;4986545;28;20494;-73
2021/07/15 11:04:51;;;;;;;9.27;8.05;;;;;;;19.41;86.25;99384.59;4985827;28;20112;-73
2021/07/15 11:07:27;;;;;;;6.80;6.18;;;;;;;19.38;86.30;99384.88;4986130;28;20133;-73
2021/07/15 11:10:13;;;;;;;7.57;6.78;;;;;;;19.35;86.80;99388.66;4984974;28;20380;-73
2021/07/15 11:12:38;;;;;;;;;;;;;;;19.34;86.45;99389.63;4968888;28;20064;-73
2021/07/15 11:15:15;;;;;;;6.20;5.32;;;;;;;19.35;86.76;99394.03;4986684;28;20004;-73
2021/07/15 11:17:45;;;;;;;5.50;4.78;;;;;;;19.37;86.76;99384.03;4968055;28;20035;-75
2021/07/15 11:20:11;;;;;;;9.35;8.00;;;;;;;19.33;86.43;99390.63;4968353;28;20391;-73
2021/07/15 11:22:43;;;;;;;6.07;5.57;;;;;;;19.33;86.91;99390.63;4985396;28;20038;-73
2021/07/15 11:25:19;;;;;;;6.05;5.22;;;;;;;19.33;86.19;99401.34;4982674;28;20615;-73
2021/07/15 11:27:50;;;;;;;7.30;6.60;;;;;;;19.34;86.07;99404.84;4985354;28;20396;-73
2021/07/15 11:30:33;;;;;;;8.13;6.63;;;;;;;19.38;86.02;99409.78;4977252;28;20145;-74
2021/07/15 11:33:18;;;;;;;7.00;5.95;;;;;;;19.42;85.73;99413.84;4966524;28;20120;-72